sensor_id;sensor_type;location;lat;lon;timestamp;temperature;humidity
31369;DHT22;18004;48.416;10.066;2023-08-17T00:10:06;22.60;99.90
31369;DHT22;18004;48.416;10.066;2023-08-17T00:16:55;22.50;99.90
31369;DHT22;18004;48.416;10.066;2023-08-17T00:27:20;21.80;99.90
31369;DHT22;18004;48.416;10.066;2023-08-17T00:37:54;20.70;99.90
31369;DHT22;18004;48.416;10.066;2023-08-17T01:34:19;21.30;99.90
31369;DHT22;18004;48.416;10.066;2023-08-17T01:37:43;21.30;99.90
31369;DHT22;18004;48.416;10.066;2023-08-17T01:40:48;21.00;99.90
31369;DHT22;18004;48.416;10.066;2023-08-17T01:44:09;21.00;99.90
31369;DHT22;18004;48.416;10.066;2023-08-17T01:50:56;21.10;99.90
31369;DHT22;18004;48.416;10.066;2023-08-17T01:53:57;21.10;99.90
31369;DHT22;18004;48.416;10.066;2023-08-17T01:57:28;21.10;99.90
31369;DHT22;18004;48.416;10.066;2023-08-17T02:15:42;21.00;99.90
31369;DHT22;18004;48.416;10.066;2023-08-17T02:49:13;20.70;99.90
31369;DHT22;18004;48.416;10.066;2023-08-17T02:59:21;20.60;99.90
31369;DHT22;18004;48.416;10.066;2023-08-17T03:09:01;20.50;99.90
31369;DHT22;18004;48.416;10.066;2023-08-17T03:15:16;20.40;99.90
31369;DHT22;18004;48.416;10.066;2023-08-17T03:21:32;20.20;99.90
31369;DHT22;18004;48.416;10.066;2023-08-17T03:24:08;20.20;99.90
31369;DHT22;18004;48.416;10.066;2023-08-17T03:26:34;20.10;99.90
31369;DHT22;18004;48.416;10.066;2023-08-17T03:29:00;20.10;99.90
31369;DHT22;18004;48.416;10.066;2023-08-17T03:31:26;20.10;99.90
31369;DHT22;18004;48.416;10.066;2023-08-17T03:33:54;20.00;99.90
31369;DHT22;18004;48.416;10.066;2023-08-17T03:36:24;20.00;99.90
31369;DHT22;18004;48.416;10.066;2023-08-17T03:38:50;19.90;99.90
31369;DHT22;18004;48.416;10.066;2023-08-17T03:41:22;19.90;99.90
31369;DHT22;18004;48.416;10.066;2023-08-17T03:43:50;19.90;99.90
31369;DHT22;18004;48.416;10.066;2023-08-17T03:46:16;19.90;99.90
31369;DHT22;18004;48.416;10.066;2023-08-17T03:52:41;19.90;99.90
31369;DHT22;18004;48.416;10.066;2023-08-17T03:55:13;19.80;99.90
31369;DHT22;18004;48.416;10.066;2023-08-17T03:57:39;19.80;99.90
31369;DHT22;18004;48.416;10.066;2023-08-17T04:00:11;19.90;99.90
31369;DHT22;18004;48.416;10.066;2023-08-17T04:02:57;19.80;99.90
31369;DHT22;18004;48.416;10.066;2023-08-17T04:05:23;19.70;99.90
31369;DHT22;18004;48.416;10.066;2023-08-17T04:07:49;19.70;99.90
31369;DHT22;18004;48.416;10.066;2023-08-17T04:10:15;19.70;99.90
31369;DHT22;18004;48.416;10.066;2023-08-17T04:12:41;19.70;99.90
31369;DHT22;18004;48.416;10.066;2023-08-17T04:15:15;19.70;99.90
31369;DHT22;18004;48.416;10.066;2023-08-17T04:17:41;19.70;99.90
31369;DHT22;18004;48.416;10.066;2023-08-17T04:20:10;19.60;99.90
31369;DHT22;18004;48.416;10.066;2023-08-17T04:22:36;19.60;99.90
31369;DHT22;18004;48.416;10.066;2023-08-17T04:25:03;19.50;99.90
31369;DHT22;18004;48.416;10.066;2023-08-17T04:30:29;19.40;99.90
31369;DHT22;18004;48.416;10.066;2023-08-17T04:32:55;19.40;99.90
31369;DHT22;18004;48.416;10.066;2023-08-17T04:35:53;19.40;99.90
31369;DHT22;18004;48.416;10.066;2023-08-17T04:38:43;19.40;99.90
31369;DHT22;18004;48.416;10.066;2023-08-17T04:41:12;19.50;99.90
31369;DHT22;18004;48.416;10.066;2023-08-17T04:43:40;19.50;99.90
31369;DHT22;18004;48.416;10.066;2023-08-17T04:46:08;19.50;99.90
31369;DHT22;18004;48.416;10.066;2023-08-17T04:48:44;19.60;99.90
31369;DHT22;18004;48.416;10.066;2023-08-17T04:51:16;19.60;99.90
31369;DHT22;18004;48.416;10.066;2023-08-17T04:53:42;19.50;99.90
31369;DHT22;18004;48.416;10.066;2023-08-17T04:56:07;19.40;99.90
31369;DHT22;18004;48.416;10.066;2023-08-17T04:58:33;19.40;99.90
31369;DHT22;18004;48.416;10.066;2023-08-17T05:01:11;19.40;99.90
31369;DHT22;18004;48.416;10.066;2023-08-17T05:06:41;19.40;99.90
31369;DHT22;18004;48.416;10.066;2023-08-17T05:09:07;19.40;99.90
31369;DHT22;18004;48.416;10.066;2023-08-17T05:11:42;19.40;99.90
31369;DHT22;18004;48.416;10.066;2023-08-17T05:14:08;19.40;99.90
31369;DHT22;18004;48.416;10.066;2023-08-17T05:16:43;19.40;99.90
31369;DHT22;18004;48.416;10.066;2023-08-17T05:19:09;19.40;99.90
31369;DHT22;18004;48.416;10.066;2023-08-17T05:21:55;19.40;99.90
31369;DHT22;18004;48.416;10.066;2023-08-17T05:24:24;19.30;99.90
31369;DHT22;18004;48.416;10.066;2023-08-17T05:26:49;19.30;99.90
31369;DHT22;18004;48.416;10.066;2023-08-17T05:29:18;19.40;99.90
31369;DHT22;18004;48.416;10.066;2023-08-17T05:32:03;19.40;99.90
31369;DHT22;18004;48.416;10.066;2023-08-17T05:34:47;19.40;99.90
31369;DHT22;18004;48.416;10.066;2023-08-17T05:37:45;19.40;99.90
31369;DHT22;18004;48.416;10.066;2023-08-17T05:40:22;19.50;99.90
31369;DHT22;18004;48.416;10.066;2023-08-17T05:46:02;19.60;99.90
31369;DHT22;18004;48.416;10.066;2023-08-17T05:51:18;19.80;99.90
31369;DHT22;18004;48.416;10.066;2023-08-17T05:54:13;19.80;99.90
31369;DHT22;18004;48.416;10.066;2023-08-17T06:00:17;19.90;99.90
31369;DHT22;18004;48.416;10.066;2023-08-17T06:02:54;19.90;99.90
31369;DHT22;18004;48.416;10.066;2023-08-17T06:05:42;20.00;99.90
31369;DHT22;18004;48.416;10.066;2023-08-17T06:12:00;20.00;99.90
31369;DHT22;18004;48.416;10.066;2023-08-17T06:14:34;20.20;99.90
31369;DHT22;18004;48.416;10.066;2023-08-17T06:20:06;20.20;99.90
31369;DHT22;18004;48.416;10.066;2023-08-17T06:22:57;20.30;99.90
31369;DHT22;18004;48.416;10.066;2023-08-17T06:25:49;20.40;99.90
31369;DHT22;18004;48.416;10.066;2023-08-17T06:31:48;20.50;99.90
31369;DHT22;18004;48.416;10.066;2023-08-17T06:34:20;20.50;99.90
31369;DHT22;18004;48.416;10.066;2023-08-17T06:37:02;20.60;99.90
31369;DHT22;18004;48.416;10.066;2023-08-17T06:39:31;20.70;99.90
31369;DHT22;18004;48.416;10.066;2023-08-17T06:42:06;20.80;99.90
31369;DHT22;18004;48.416;10.066;2023-08-17T06:59:20;21.10;99.90
31369;DHT22;18004;48.416;10.066;2023-08-17T08:22:19;25.20;99.50
31369;DHT22;18004;48.416;10.066;2023-08-17T13:38:58;27.50;21.60
31369;DHT22;18004;48.416;10.066;2023-08-17T13:50:02;25.90;22.20
31369;DHT22;18004;48.416;10.066;2023-08-17T13:52:34;25.40;29.00
31369;DHT22;18004;48.416;10.066;2023-08-17T13:55:00;24.40;55.80
31369;DHT22;18004;48.416;10.066;2023-08-17T13:57:51;23.90;62.00
31369;DHT22;18004;48.416;10.066;2023-08-17T14:00:45;23.50;79.20
31369;DHT22;18004;48.416;10.066;2023-08-17T14:03:10;22.10;99.90
31369;DHT22;18004;48.416;10.066;2023-08-17T14:05:36;20.20;99.90
31369;DHT22;18004;48.416;10.066;2023-08-17T14:08:02;19.30;99.90
31369;DHT22;18004;48.416;10.066;2023-08-17T14:10:29;19.30;99.90
31369;DHT22;18004;48.416;10.066;2023-08-17T14:12:55;19.50;99.90
31369;DHT22;18004;48.416;10.066;2023-08-17T14:15:21;19.50;99.90
31369;DHT22;18004;48.416;10.066;2023-08-17T14:17:48;19.50;99.90
31369;DHT22;18004;48.416;10.066;2023-08-17T14:20:13;19.60;99.90
31369;DHT22;18004;48.416;10.066;2023-08-17T14:26:54;19.90;99.90
31369;DHT22;18004;48.416;10.066;2023-08-17T14:30:00;20.00;99.90
31369;DHT22;18004;48.416;10.066;2023-08-17T14:35:50;20.60;99.90
31369;DHT22;18004;48.416;10.066;2023-08-17T14:38:44;20.80;99.90
31369;DHT22;18004;48.416;10.066;2023-08-17T14:41:12;20.70;99.90
31369;DHT22;18004;48.416;10.066;2023-08-17T14:43:38;20.70;99.90
31369;DHT22;18004;48.416;10.066;2023-08-17T14:46:04;20.70;99.90
31369;DHT22;18004;48.416;10.066;2023-08-17T14:48:30;20.70;99.90
31369;DHT22;18004;48.416;10.066;2023-08-17T14:50:56;20.80;99.90
31369;DHT22;18004;48.416;10.066;2023-08-17T14:57:14;21.20;99.90
31369;DHT22;18004;48.416;10.066;2023-08-17T15:00:11;21.20;99.90
31369;DHT22;18004;48.416;10.066;2023-08-17T15:21:09;20.70;99.90
31369;DHT22;18004;48.416;10.066;2023-08-17T15:26:56;20.30;99.90
31369;DHT22;18004;48.416;10.066;2023-08-17T15:29:22;19.80;99.90
31369;DHT22;18004;48.416;10.066;2023-08-17T15:31:48;19.60;99.90
31369;DHT22;18004;48.416;10.066;2023-08-17T15:34:14;19.40;99.90
31369;DHT22;18004;48.416;10.066;2023-08-17T15:37:34;19.40;99.90
31369;DHT22;18004;48.416;10.066;2023-08-17T15:43:07;19.90;99.90
31369;DHT22;18004;48.416;10.066;2023-08-17T15:45:39;20.00;99.90
31369;DHT22;18004;48.416;10.066;2023-08-17T15:51:55;20.50;99.90
31369;DHT22;18004;48.416;10.066;2023-08-17T15:54:56;20.70;99.90
31369;DHT22;18004;48.416;10.066;2023-08-17T15:57:51;20.70;99.90
31369;DHT22;18004;48.416;10.066;2023-08-17T16:01:00;20.70;99.90
31369;DHT22;18004;48.416;10.066;2023-08-17T16:22:28;21.10;99.90
31369;DHT22;18004;48.416;10.066;2023-08-17T16:25:12;21.00;99.90
31369;DHT22;18004;48.416;10.066;2023-08-17T16:43:59;21.00;99.90
31369;DHT22;18004;48.416;10.066;2023-08-17T17:29:03;21.20;99.90
31369;DHT22;18004;48.416;10.066;2023-08-17T17:39:40;20.90;99.90
31369;DHT22;18004;48.416;10.066;2023-08-17T17:42:29;20.80;99.90
31369;DHT22;18004;48.416;10.066;2023-08-17T17:44:58;20.70;99.90
31369;DHT22;18004;48.416;10.066;2023-08-17T17:47:27;20.70;99.90
31369;DHT22;18004;48.416;10.066;2023-08-17T17:53:11;20.60;99.90
31369;DHT22;18004;48.416;10.066;2023-08-17T18:08:05;20.60;99.90
31369;DHT22;18004;48.416;10.066;2023-08-17T18:11:47;20.70;99.90
31369;DHT22;18004;48.416;10.066;2023-08-17T18:34:17;20.40;99.90
31369;DHT22;18004;48.416;10.066;2023-08-17T18:37:38;20.40;99.90
31369;DHT22;18004;48.416;10.066;2023-08-17T18:44:19;20.30;99.90
31369;DHT22;18004;48.416;10.066;2023-08-17T18:47:32;20.30;99.90
31369;DHT22;18004;48.416;10.066;2023-08-17T19:19:07;20.40;99.90
31369;DHT22;18004;48.416;10.066;2023-08-17T19:22:58;20.40;99.90
31369;DHT22;18004;48.416;10.066;2023-08-17T20:00:11;20.30;99.90
31369;DHT22;18004;48.416;10.066;2023-08-17T20:18:00;20.10;99.90
31369;DHT22;18004;48.416;10.066;2023-08-17T20:20:55;20.00;99.90
31369;DHT22;18004;48.416;10.066;2023-08-17T20:23:25;19.70;99.90
31369;DHT22;18004;48.416;10.066;2023-08-17T20:26:03;19.60;99.90
31369;DHT22;18004;48.416;10.066;2023-08-17T20:28:56;19.30;99.90
31369;DHT22;18004;48.416;10.066;2023-08-17T20:31:22;19.10;99.90
31369;DHT22;18004;48.416;10.066;2023-08-17T20:33:52;19.00;99.90
31369;DHT22;18004;48.416;10.066;2023-08-17T20:36:27;19.00;99.90
31369;DHT22;18004;48.416;10.066;2023-08-17T20:39:55;18.70;99.90
31369;DHT22;18004;48.416;10.066;2023-08-17T20:45:53;18.50;99.90
31369;DHT22;18004;48.416;10.066;2023-08-17T20:56:26;18.10;99.90
31369;DHT22;18004;48.416;10.066;2023-08-17T21:10:02;18.40;99.90
31369;DHT22;18004;48.416;10.066;2023-08-17T21:12:28;18.50;99.90
31369;DHT22;18004;48.416;10.066;2023-08-17T21:14:55;18.60;99.90
31369;DHT22;18004;48.416;10.066;2023-08-17T21:17:25;18.70;99.90
31369;DHT22;18004;48.416;10.066;2023-08-17T21:19:53;18.60;99.90
31369;DHT22;18004;48.416;10.066;2023-08-17T21:22:21;18.50;99.90
31369;DHT22;18004;48.416;10.066;2023-08-17T21:24:53;18.50;99.90
31369;DHT22;18004;48.416;10.066;2023-08-17T21:27:24;18.50;99.90
31369;DHT22;18004;48.416;10.066;2023-08-17T21:29:57;18.60;99.90
31369;DHT22;18004;48.416;10.066;2023-08-17T21:32:26;18.60;99.90
31369;DHT22;18004;48.416;10.066;2023-08-17T21:34:54;18.50;99.90
31369;DHT22;18004;48.416;10.066;2023-08-17T21:44:11;18.70;99.90
31369;DHT22;18004;48.416;10.066;2023-08-17T21:47:03;18.80;99.90
31369;DHT22;18004;48.416;10.066;2023-08-17T21:53:00;19.00;99.90
31369;DHT22;18004;48.416;10.066;2023-08-17T21:59:03;19.10;99.90
31369;DHT22;18004;48.416;10.066;2023-08-17T22:05:59;18.90;99.90
31369;DHT22;18004;48.416;10.066;2023-08-17T22:08:37;18.70;99.90
31369;DHT22;18004;48.416;10.066;2023-08-17T22:16:02;18.00;99.90
31369;DHT22;18004;48.416;10.066;2023-08-17T22:26:00;17.90;99.90
31369;DHT22;18004;48.416;10.066;2023-08-17T22:28:36;17.80;99.90
31369;DHT22;18004;48.416;10.066;2023-08-17T22:31:06;17.70;99.90
31369;DHT22;18004;48.416;10.066;2023-08-17T22:33:38;17.70;99.90
31369;DHT22;18004;48.416;10.066;2023-08-17T22:36:04;17.70;99.90
31369;DHT22;18004;48.416;10.066;2023-08-17T22:48:30;18.00;99.90
31369;DHT22;18004;48.416;10.066;2023-08-17T22:50:58;18.20;99.90
31369;DHT22;18004;48.416;10.066;2023-08-17T22:53:24;18.20;99.90
31369;DHT22;18004;48.416;10.066;2023-08-17T23:03:01;17.90;99.90
31369;DHT22;18004;48.416;10.066;2023-08-17T23:05:28;17.60;99.90
31369;DHT22;18004;48.416;10.066;2023-08-17T23:08:16;17.50;99.90
31369;DHT22;18004;48.416;10.066;2023-08-17T23:10:42;17.60;99.90
31369;DHT22;18004;48.416;10.066;2023-08-17T23:13:08;17.50;99.90
31369;DHT22;18004;48.416;10.066;2023-08-17T23:15:34;17.60;99.90
31369;DHT22;18004;48.416;10.066;2023-08-17T23:18:00;17.50;99.90
31369;DHT22;18004;48.416;10.066;2023-08-17T23:27:23;17.60;99.90
31369;DHT22;18004;48.416;10.066;2023-08-17T23:30:00;17.60;99.90
31369;DHT22;18004;48.416;10.066;2023-08-17T23:44:22;17.50;99.90
31369;DHT22;18004;48.416;10.066;2023-08-17T23:47:12;17.40;99.90
31369;DHT22;18004;48.416;10.066;2023-08-17T23:49:38;17.40;99.90
31369;DHT22;18004;48.416;10.066;2023-08-17T23:52:17;17.30;99.90
31369;DHT22;18004;48.416;10.066;2023-08-17T23:55:02;17.40;99.90
31369;DHT22;18004;48.416;10.066;2023-08-17T23:57:34;17.30;99.90
